createdAt,value
2019-04-03T00:00:20.845Z,12.9
2019-04-03T00:02:45.689Z,12.9
2019-04-03T00:03:45.182Z,12.8
2019-04-03T00:04:44.591Z,12.8
2019-04-03T00:05:43.462Z,12.8
2019-04-03T00:06:42.962Z,12.8
2019-04-03T00:07:41.959Z,12.8
2019-04-03T00:08:40.993Z,12.7
2019-04-03T00:09:40.571Z,12.8
2019-04-03T00:10:10.780Z,12.8
2019-04-03T00:11:40.845Z,12.7
2019-04-03T00:12:41.424Z,12.7
2019-04-03T00:13:37.374Z,12.7
2019-04-03T00:14:36.403Z,12.7
2019-04-03T00:15:35.820Z,12.7
2019-04-03T00:16:34.705Z,12.6
2019-04-03T00:17:34.193Z,12.6
2019-04-03T00:18:33.197Z,12.6
2019-04-03T00:19:32.486Z,12.6
2019-04-03T00:20:31.367Z,12.5
2019-04-03T00:21:01.708Z,12.5
2019-04-03T00:21:31.904Z,12.5
2019-04-03T00:22:30.010Z,12.5
2019-04-03T00:23:28.921Z,12.5
2019-04-03T00:24:28.115Z,12.5
2019-04-03T00:25:27.496Z,12.5
2019-04-03T00:25:57.784Z,12.5
2019-04-03T00:26:31.408Z,12.5
2019-04-03T00:26:58.748Z,12.5
2019-04-03T00:27:29.503Z,12.4
2019-04-03T00:28:25.441Z,12.4
2019-04-03T00:29:24.446Z,12.4
2019-04-03T00:30:23.458Z,12.4
2019-04-03T00:31:24.271Z,12.4
2019-04-03T00:32:24.065Z,12.4
2019-04-03T00:33:24.232Z,12.4
2019-04-03T00:34:22.952Z,12.3
2019-04-03T00:35:19.598Z,12.3
2019-04-03T00:36:18.916Z,12.3
2019-04-03T00:36:49.474Z,12.3
2019-04-03T00:37:20.083Z,12.3
2019-04-03T00:37:52.861Z,12.3
2019-04-03T00:38:20.889Z,12.2
2019-04-03T00:39:16.594Z,12.2
2019-04-03T00:40:15.655Z,12.2
2019-04-03T00:41:14.586Z,12.1
2019-04-03T00:42:13.879Z,12.1
2019-04-03T00:43:13.200Z,12.1
2019-04-03T00:44:12.135Z,12
2019-04-03T00:45:11.415Z,12
2019-04-03T00:46:10.804Z,11.9
2019-04-03T00:46:41.071Z,11.9
2019-04-03T00:47:11.495Z,11.9
2019-04-03T00:47:41.890Z,11.9
2019-04-03T00:49:08.465Z,11.8
2019-04-03T00:50:07.455Z,11.8
2019-04-03T00:51:06.754Z,11.8
2019-04-03T00:52:05.696Z,11.7
2019-04-03T00:53:05.142Z,11.7
2019-04-03T00:54:03.942Z,11.7
2019-04-03T00:55:03.388Z,11.6
2019-04-03T00:56:02.703Z,11.6
2019-04-03T00:56:33.128Z,11.6
2019-04-03T00:57:03.651Z,11.6
2019-04-03T00:57:33.744Z,11.6
2019-04-03T00:58:03.974Z,11.6
2019-04-03T00:58:34.364Z,11.6
2019-04-03T00:59:59.418Z,11.6
2019-04-03T01:00:58.272Z,11.5
2019-04-03T01:01:57.848Z,11.5
2019-04-03T01:02:59.376Z,11.5
2019-04-03T01:03:59.378Z,11.5
2019-04-03T01:04:55.178Z,11.4
2019-04-03T01:05:54.464Z,11.4
2019-04-03T01:06:24.764Z,11.4
2019-04-03T01:06:55.156Z,11.4
2019-04-03T01:07:25.910Z,11.4
2019-04-03T01:08:00.029Z,11.3
2019-04-03T01:08:29.981Z,11.3
2019-04-03T01:09:00.431Z,11.3
2019-04-03T01:09:30.357Z,11.3
2019-04-03T01:10:50.174Z,11.3
2019-04-03T01:11:49.617Z,11.3
2019-04-03T01:12:48.494Z,11.2
2019-04-03T01:13:47.909Z,11.2
2019-04-03T01:14:46.809Z,11.2
2019-04-03T01:15:46.249Z,11.2
2019-04-03T01:16:16.577Z,11.2
2019-04-03T01:16:46.842Z,11.1
2019-04-03T01:17:17.539Z,11.1
2019-04-03T01:17:47.960Z,11.1
2019-04-03T01:18:18.279Z,11.1
2019-04-03T01:18:48.650Z,11.1
2019-04-03T01:19:19.048Z,11.1
2019-04-03T01:19:49.153Z,11.1
2019-04-03T01:20:19.864Z,11.1
2019-04-03T01:21:41.361Z,11
2019-04-03T01:22:40.496Z,11
2019-04-03T01:23:39.460Z,11
2019-04-03T01:24:39.478Z,10.9
2019-04-03T01:25:40.415Z,10.9
2019-04-03T01:26:10.627Z,10.9
2019-04-03T01:26:41.444Z,10.9
2019-04-03T01:27:12.193Z,10.9
2019-04-03T01:27:42.372Z,10.9
2019-04-03T01:28:12.267Z,10.9
2019-04-03T01:28:42.805Z,10.8
2019-04-03T01:29:13.159Z,10.8
2019-04-03T01:29:43.587Z,10.8
2019-04-03T01:30:14.597Z,10.8
2019-04-03T01:30:44.989Z,10.8
2019-04-03T01:31:15.415Z,10.8
2019-04-03T01:32:31.973Z,10.8
2019-04-03T01:33:31.527Z,10.8
2019-04-03T01:34:30.554Z,10.7
2019-04-03T01:35:29.512Z,10.7
2019-04-03T01:36:28.903Z,10.7
2019-04-03T01:36:59.111Z,10.7
2019-04-03T01:37:29.615Z,10.7
2019-04-03T01:38:00.375Z,10.7
2019-04-03T01:38:30.767Z,10.7
2019-04-03T01:39:00.962Z,10.7
2019-04-03T01:39:31.726Z,10.7
2019-04-03T01:40:02.304Z,10.7
2019-04-03T01:40:32.594Z,10.7
2019-04-03T01:41:02.935Z,10.7
2019-04-03T01:42:23.528Z,10.7
2019-04-03T01:43:24.054Z,10.7
2019-04-03T01:44:25.551Z,10.6
2019-04-03T01:45:21.440Z,10.6
2019-04-03T01:46:20.758Z,10.6
2019-04-03T01:47:19.544Z,10.6
2019-04-03T01:47:50.003Z,10.6
2019-04-03T01:48:20.553Z,10.6
2019-04-03T01:48:50.737Z,10.6
2019-04-03T01:50:17.366Z,10.6
2019-04-03T01:50:47.495Z,10.6
2019-04-03T01:51:18.202Z,10.6
2019-04-03T01:51:48.766Z,10.6
2019-04-03T01:52:19.114Z,10.6
2019-04-03T01:53:14.425Z,10.6
2019-04-03T01:54:13.984Z,10.6
2019-04-03T01:55:13.054Z,10.6
2019-04-03T01:56:11.998Z,10.6
2019-04-03T01:57:11.422Z,10.6
2019-04-03T01:58:10.307Z,10.5
2019-04-03T01:58:40.577Z,10.5
2019-04-03T01:59:10.830Z,10.5
2019-04-03T01:59:41.513Z,10.5
2019-04-03T02:00:11.777Z,10.5
2019-04-03T02:00:41.897Z,10.5
2019-04-03T02:02:09.420Z,10.5
2019-04-03T02:03:05.998Z,10.5
2019-04-03T02:04:05.232Z,10.5
2019-04-03T02:05:04.770Z,10.5
2019-04-03T02:06:03.799Z,10.5
2019-04-03T02:07:02.993Z,10.5
2019-04-03T02:08:02.078Z,10.5
2019-04-03T02:09:00.995Z,10.4
2019-04-03T02:11:31.027Z,10.4
2019-04-03T02:12:01.256Z,10.4
2019-04-03T02:12:57.660Z,10.4
2019-04-03T02:13:57.256Z,10.4
2019-04-03T02:14:55.941Z,10.4
2019-04-03T02:15:55.373Z,10.4
2019-04-03T02:16:54.666Z,10.4
2019-04-03T02:17:55.515Z,10.4
2019-04-03T02:18:56.208Z,10.4
2019-04-03T02:19:51.815Z,10.4
2019-04-03T02:20:22.331Z,10.4
2019-04-03T02:21:50.121Z,10.4
2019-04-03T02:22:49.559Z,10.3
2019-04-03T02:23:48.487Z,10.3
2019-04-03T02:24:47.884Z,10.3
2019-04-03T02:25:46.940Z,10.3
2019-04-03T02:26:45.921Z,10.3
2019-04-03T02:27:45.200Z,10.3
2019-04-03T02:28:44.409Z,10.3
2019-04-03T02:29:43.714Z,10.3
2019-04-03T02:31:42.057Z,10.3
2019-04-03T02:32:41.117Z,10.3
2019-04-03T02:33:40.417Z,10.2
2019-04-03T02:34:39.480Z,10.2
2019-04-03T02:36:37.778Z,10.2
2019-04-03T02:37:37.155Z,10.2
2019-04-03T02:38:36.578Z,10.2
2019-04-03T02:39:35.026Z,10.2
2019-04-03T02:40:34.342Z,10.2
2019-04-03T02:41:37.962Z,10.3
2019-04-03T02:42:10.100Z,10.3
2019-04-03T02:42:35.092Z,10.3
2019-04-03T02:43:31.969Z,10.3
2019-04-03T02:44:30.914Z,10.3
2019-04-03T02:45:30.007Z,10.2
2019-04-03T02:46:00.559Z,10.2
2019-04-03T02:47:32.249Z,10.2
2019-04-03T02:47:59.162Z,10.2
2019-04-03T02:48:29.734Z,10.2
2019-04-03T02:49:26.558Z,10.2
2019-04-03T02:50:26.171Z,10.2
2019-04-03T02:51:25.116Z,10.1
2019-04-03T02:52:26.295Z,10.1
2019-04-03T02:53:23.201Z,10.1
2019-04-03T02:54:22.300Z,10.1
2019-04-03T02:55:21.603Z,10.1
2019-04-03T02:55:51.714Z,10.1
2019-04-03T02:56:22.064Z,10.1
2019-04-03T02:56:52.601Z,10.1
2019-04-03T02:58:23.436Z,10.1
2019-04-03T02:59:18.019Z,10.1
2019-04-03T03:00:17.536Z,10
2019-04-03T03:01:16.691Z,10
2019-04-03T03:02:15.802Z,10
2019-04-03T03:03:18.842Z,9.9
2019-04-03T03:04:13.709Z,9.9
2019-04-03T03:05:12.880Z,9.9
2019-04-03T03:06:12.088Z,9.9
2019-04-03T03:06:42.827Z,9.9
2019-04-03T03:07:12.712Z,9.9
2019-04-03T03:07:43.365Z,9.9
2019-04-03T03:09:14.043Z,9.8
2019-04-03T03:10:09.136Z,9.8
2019-04-03T03:11:07.979Z,9.8
2019-04-03T03:12:07.159Z,9.8
2019-04-03T03:13:06.328Z,9.7
2019-04-03T03:14:08.522Z,9.7
2019-04-03T03:15:04.188Z,9.7
2019-04-03T03:16:04.135Z,9.7
2019-04-03T03:16:34.173Z,9.7
2019-04-03T03:17:04.925Z,9.7
2019-04-03T03:17:35.016Z,9.7
2019-04-03T03:18:05.127Z,9.6
2019-04-03T03:18:35.780Z,9.6
2019-04-03T03:20:00.230Z,9.6
2019-04-03T03:20:30.791Z,9.6
2019-04-03T03:21:01.302Z,9.6
2019-04-03T03:21:58.482Z,9.6
2019-04-03T03:22:57.919Z,9.5
2019-04-03T03:23:57.975Z,9.5
2019-04-03T03:24:55.573Z,9.5
2019-04-03T03:25:55.083Z,9.5
2019-04-03T03:26:25.774Z,9.5
2019-04-03T03:26:55.602Z,9.5
2019-04-03T03:27:26.039Z,9.5
2019-04-03T03:27:56.790Z,9.5
2019-04-03T03:28:26.765Z,9.5
2019-04-03T03:28:57.395Z,9.5
2019-04-03T03:29:28.439Z,9.5
2019-04-03T03:31:07.007Z,9.5
2019-04-03T03:32:18.565Z,9.5
2019-04-03T03:32:40.872Z,9.5
2019-04-03T03:33:48.025Z,9.4
2019-04-03T03:35:17.112Z,9.5
2019-04-03T03:35:52.259Z,9.5
2019-04-03T03:36:27.437Z,9.5
2019-04-03T03:36:48.743Z,9.5
2019-04-03T03:37:18.251Z,9.5
2019-04-03T03:37:48.521Z,9.4
2019-04-03T03:38:18.982Z,9.4
2019-04-03T03:38:49.381Z,9.4
2019-04-03T03:39:19.831Z,9.4
2019-04-03T03:39:50.267Z,9.4
2019-04-03T03:40:20.781Z,9.4
2019-04-03T03:41:41.016Z,9.4
2019-04-03T03:42:40.578Z,9.4
2019-04-03T03:44:46.000Z,9.3
2019-04-03T03:45:37.968Z,9.3
2019-04-03T03:46:08.481Z,9.3
2019-04-03T03:46:38.929Z,9.3
2019-04-03T03:47:09.634Z,9.3
2019-04-03T03:47:39.986Z,9.3
2019-04-03T03:48:11.967Z,9.3
2019-04-03T03:48:46.000Z,9.4
2019-04-03T03:49:17.774Z,9.4
2019-04-03T03:49:41.781Z,9.4
2019-04-03T03:50:12.620Z,9.4
2019-04-03T03:51:32.954Z,9.4
2019-04-03T03:52:38.146Z,9.4
2019-04-03T03:53:30.791Z,9.4
2019-04-03T03:54:29.948Z,9.4
2019-04-03T03:55:29.214Z,9.4
2019-04-03T03:56:33.033Z,9.4
2019-04-03T03:56:58.605Z,9.4
2019-04-03T03:57:28.870Z,9.4
2019-04-03T03:57:59.209Z,9.4
2019-04-03T03:58:29.318Z,9.4
2019-04-03T03:59:00.449Z,9.4
2019-04-03T03:59:30.498Z,9.4
2019-04-03T04:00:00.671Z,9.4
2019-04-03T04:01:24.324Z,9.3
2019-04-03T04:02:23.092Z,9.3
2019-04-03T04:03:22.433Z,9.3
2019-04-03T04:04:21.472Z,9.3
2019-04-03T04:05:23.538Z,9.3
2019-04-03T04:06:19.865Z,9.4
2019-04-03T04:07:18.603Z,9.4
2019-04-03T04:07:49.336Z,9.4
2019-04-03T04:08:20.054Z,9.4
2019-04-03T04:08:50.452Z,9.4
2019-04-03T04:09:21.565Z,9.4
2019-04-03T04:09:53.219Z,9.4
2019-04-03T04:11:15.016Z,9.4
2019-04-03T04:12:14.607Z,9.4
2019-04-03T04:13:16.649Z,9.4
2019-04-03T04:14:13.125Z,9.4
2019-04-03T04:15:11.492Z,9.4
2019-04-03T04:16:11.024Z,9.4
2019-04-03T04:17:19.043Z,9.3
2019-04-03T04:18:13.565Z,9.3
2019-04-03T04:18:39.956Z,9.3
2019-04-03T04:19:10.462Z,9.3
2019-04-03T04:19:40.731Z,9.3
2019-04-03T04:20:11.656Z,9.3
2019-04-03T04:20:41.584Z,9.3
2019-04-03T04:21:12.770Z,9.3
2019-04-03T04:21:45.789Z,9.3
2019-04-03T04:22:19.086Z,9.3
2019-04-03T04:22:44.021Z,9.3
2019-04-03T04:23:14.412Z,9.3
2019-04-03T04:24:04.286Z,9.3
2019-04-03T04:25:03.225Z,9.2
2019-04-03T04:26:02.724Z,9.2
2019-04-03T04:27:04.127Z,9.2
2019-04-03T04:28:00.614Z,9.2
2019-04-03T04:28:59.674Z,9.2
2019-04-03T04:29:30.072Z,9.2
2019-04-03T04:30:00.847Z,9.2
2019-04-03T04:30:31.454Z,9.2
2019-04-03T04:31:01.797Z,9.2
2019-04-03T04:31:32.023Z,9.2
2019-04-03T04:32:02.242Z,9.2
2019-04-03T04:32:56.134Z,9.2
2019-04-03T04:34:54.083Z,9.1
2019-04-03T04:35:53.946Z,9.1
2019-04-03T04:36:56.330Z,9.1
2019-04-03T04:37:51.693Z,9.1
2019-04-03T04:38:51.257Z,9.1
2019-04-03T04:39:50.261Z,9.1
2019-04-03T04:40:20.754Z,9.1
2019-04-03T04:40:51.555Z,9.1
2019-04-03T04:41:48.462Z,9
2019-04-03T04:42:47.455Z,9
2019-04-03T04:43:46.415Z,9
2019-04-03T04:44:45.977Z,9
2019-04-03T04:45:16.285Z,9
2019-04-03T04:45:47.063Z,9
2019-04-03T04:46:45.287Z,9
2019-04-03T04:47:46.887Z,8.9
2019-04-03T04:48:42.237Z,8.9
2019-04-03T04:49:41.503Z,8.9
2019-04-03T04:50:40.792Z,8.9
2019-04-03T04:51:39.687Z,8.9
2019-04-03T04:52:38.997Z,8.9
2019-04-03T04:53:38.003Z,8.9
2019-04-03T04:54:37.073Z,8.9
2019-04-03T04:55:07.461Z,8.9
2019-04-03T04:56:38.698Z,8.9
2019-04-03T04:57:34.312Z,8.8
2019-04-03T04:58:33.381Z,8.8
2019-04-03T04:59:35.571Z,8.8
2019-04-03T05:00:31.881Z,8.8
2019-04-03T05:01:30.701Z,8.8
2019-04-03T05:02:30.422Z,8.8
2019-04-03T05:03:29.037Z,8.8
2019-04-03T05:04:28.421Z,8.8
2019-04-03T05:05:31.657Z,8.8
2019-04-03T05:05:59.327Z,8.8
2019-04-03T05:06:30.150Z,8.8
2019-04-03T05:07:00.984Z,8.8
2019-04-03T05:07:31.790Z,8.8
2019-04-03T05:08:25.026Z,8.8
2019-04-03T05:09:23.911Z,8.8
2019-04-03T05:10:22.890Z,8.8
2019-04-03T05:11:22.111Z,8.8
2019-04-03T05:13:20.501Z,8.8
2019-04-03T05:14:19.370Z,8.8
2019-04-03T05:15:24.348Z,8.8
2019-04-03T05:15:48.940Z,8.8
2019-04-03T05:16:21.306Z,8.8
2019-04-03T05:16:49.796Z,8.8
2019-04-03T05:18:16.072Z,8.8
2019-04-03T05:19:20.131Z,8.8
2019-04-03T05:20:14.717Z,8.8
2019-04-03T05:21:13.694Z,8.8
2019-04-03T05:22:12.301Z,8.8
2019-04-03T05:23:11.838Z,8.8
2019-04-03T05:24:14.411Z,8.9
2019-04-03T05:25:09.766Z,8.9
2019-04-03T05:25:40.222Z,8.9
2019-04-03T05:26:10.480Z,8.9
2019-04-03T05:26:41.058Z,8.9
2019-04-03T05:27:11.424Z,8.9
2019-04-03T05:27:41.937Z,8.9
2019-04-03T05:29:06.642Z,8.9
2019-04-03T05:30:07.192Z,8.9
2019-04-03T05:31:08.747Z,8.9
2019-04-03T05:32:03.599Z,8.9
2019-04-03T05:33:02.826Z,9
2019-04-03T05:34:01.783Z,9
2019-04-03T05:35:00.998Z,9
2019-04-03T05:35:31.630Z,9
2019-04-03T05:36:01.877Z,9
2019-04-03T05:36:32.305Z,9
2019-04-03T05:37:02.952Z,9
2019-04-03T05:37:33.165Z,9
2019-04-03T05:38:03.694Z,9
2019-04-03T05:38:34.167Z,9
2019-04-03T05:39:56.890Z,9.1
2019-04-03T05:40:57.531Z,9.1
2019-04-03T05:41:55.083Z,9.1
2019-04-03T05:42:54.384Z,9.1
2019-04-03T05:43:53.312Z,9.1
2019-04-03T05:44:52.747Z,9.1
2019-04-03T05:45:22.843Z,9.1
2019-04-03T05:45:53.480Z,9.1
2019-04-03T05:46:23.893Z,9.1
2019-04-03T05:46:54.302Z,9.2
2019-04-03T05:47:24.523Z,9.2
2019-04-03T05:47:54.965Z,9.2
2019-04-03T05:48:25.813Z,9.2
2019-04-03T05:48:56.176Z,9.2
2019-04-03T05:49:26.359Z,9.2
2019-04-03T05:50:47.375Z,9.2
2019-04-03T05:51:46.293Z,9.2
2019-04-03T05:52:45.432Z,9.3
2019-04-03T05:53:44.356Z,9.3
2019-04-03T05:54:45.481Z,9.3
2019-04-03T05:55:14.092Z,9.3
2019-04-03T05:55:44.427Z,9.3
2019-04-03T05:56:15.446Z,9.3
2019-04-03T05:56:45.652Z,9.4
2019-04-03T05:57:16.160Z,9.4
2019-04-03T05:57:46.943Z,9.4
2019-04-03T05:58:17.361Z,9.4
2019-04-03T05:59:02.520Z,9.4
2019-04-03T05:59:17.392Z,9.4
2019-04-03T06:00:39.373Z,9.4
2019-04-03T06:01:38.010Z,9.5
2019-04-03T06:02:36.862Z,9.5
2019-04-03T06:03:45.984Z,9.5
2019-04-03T06:04:35.020Z,9.5
2019-04-03T06:05:34.066Z,9.6
2019-04-03T06:06:04.482Z,9.6
2019-04-03T06:06:35.157Z,9.6
2019-04-03T06:07:05.180Z,9.6
2019-04-03T06:07:35.836Z,9.6
2019-04-03T06:08:06.425Z,9.6
2019-04-03T06:08:36.901Z,9.6
2019-04-03T06:09:07.417Z,9.6
2019-04-03T06:10:37.596Z,9.7
2019-04-03T06:11:09.244Z,9.7
2019-04-03T06:11:31.085Z,9.7
2019-04-03T06:12:27.998Z,9.7
2019-04-03T06:13:27.430Z,9.7
2019-04-03T06:14:26.397Z,9.8
2019-04-03T06:15:25.442Z,9.8
2019-04-03T06:16:25.755Z,9.8
2019-04-03T06:16:57.300Z,9.8
2019-04-03T06:17:25.575Z,9.8
2019-04-03T06:17:56.537Z,9.8
2019-04-03T06:18:27.841Z,9.8
2019-04-03T06:18:59.984Z,9.8
2019-04-03T06:20:21.219Z,9.8
2019-04-03T06:21:20.443Z,9.8
2019-04-03T06:22:22.640Z,9.8
2019-04-03T06:23:22.333Z,9.8
2019-04-03T06:24:18.761Z,9.9
2019-04-03T06:25:17.008Z,9.9
2019-04-03T06:26:16.105Z,9.9
2019-04-03T06:26:46.481Z,9.9
2019-04-03T06:27:20.268Z,9.9
2019-04-03T06:27:47.659Z,9.9
2019-04-03T06:28:17.993Z,9.9
2019-04-03T06:28:48.503Z,9.9
2019-04-03T06:29:20.025Z,9.9
2019-04-03T06:29:55.543Z,9.9
2019-04-03T06:31:11.736Z,9.9
2019-04-03T06:32:10.771Z,9.9
2019-04-03T06:33:09.932Z,9.9
2019-04-03T06:34:09.044Z,9.9
2019-04-03T06:35:08.083Z,9.9
2019-04-03T06:36:07.135Z,10
2019-04-03T06:37:06.507Z,10
2019-04-03T06:37:36.991Z,10
2019-04-03T06:38:07.169Z,10
2019-04-03T06:38:37.746Z,10
2019-04-03T06:39:08.631Z,10
2019-04-03T06:39:38.241Z,10
2019-04-03T06:40:08.597Z,10
2019-04-03T06:40:39.076Z,10
2019-04-03T06:41:10.068Z,10
2019-04-03T06:42:02.276Z,10
2019-04-03T06:43:01.364Z,10
2019-04-03T06:44:00.481Z,10
2019-04-03T06:44:59.672Z,10
2019-04-03T06:45:58.778Z,10
2019-04-03T06:47:02.051Z,10
2019-04-03T06:47:57.453Z,10
2019-04-03T06:48:27.884Z,10
2019-04-03T06:48:58.352Z,10
2019-04-03T06:49:28.830Z,10
2019-04-03T06:49:59.231Z,10
2019-04-03T06:50:29.479Z,10
2019-04-03T06:50:59.603Z,10
2019-04-03T06:51:53.683Z,10
2019-04-03T06:52:54.170Z,10
2019-04-03T06:53:52.053Z,10
2019-04-03T06:54:51.003Z,10
2019-04-03T06:55:50.011Z,10
2019-04-03T06:56:53.370Z,10
2019-04-03T06:57:48.891Z,10
2019-04-03T06:58:47.755Z,10
2019-04-03T06:59:18.352Z,10
2019-04-03T06:59:49.494Z,10
2019-04-03T07:00:18.888Z,10
2019-04-03T07:00:49.605Z,9.9
2019-04-03T07:01:44.903Z,9.9
2019-04-03T07:02:44.382Z,9.9
2019-04-03T07:03:43.284Z,10
2019-04-03T07:04:42.716Z,10
2019-04-03T07:05:42.688Z,10
2019-04-03T07:06:40.798Z,10.1
2019-04-03T07:07:39.969Z,10.1
2019-04-03T07:08:41.667Z,10.1
2019-04-03T07:09:38.340Z,10.1
2019-04-03T07:10:40.490Z,10.1
2019-04-03T07:11:36.269Z,10.2
2019-04-03T07:12:35.720Z,10.2
2019-04-03T07:14:34.082Z,10.3
2019-04-03T07:15:04.703Z,10.3
2019-04-03T07:15:34.788Z,10.3
2019-04-03T07:16:32.523Z,10.3
2019-04-03T07:17:33.516Z,10.4
2019-04-03T07:18:30.738Z,10.4
2019-04-03T07:19:29.601Z,10.4
2019-04-03T07:20:28.897Z,10.5
2019-04-03T07:21:28.560Z,10.5
2019-04-03T07:22:28.927Z,10.5
2019-04-03T07:23:30.254Z,10.6
2019-04-03T07:24:25.141Z,10.6
2019-04-03T07:24:55.965Z,10.6
2019-04-03T07:25:26.206Z,10.6
2019-04-03T07:25:57.024Z,10.6
2019-04-03T07:26:27.520Z,10.7
2019-04-03T07:26:57.526Z,10.7
2019-04-03T07:27:28.229Z,10.7
2019-04-03T07:28:22.019Z,10.7
2019-04-03T07:29:21.214Z,10.8
2019-04-03T07:30:22.668Z,10.8
2019-04-03T07:31:19.317Z,10.8
2019-04-03T07:32:18.424Z,10.8
2019-04-03T07:33:17.748Z,10.9
2019-04-03T07:34:16.853Z,10.9
2019-04-03T07:34:47.156Z,10.9
2019-04-03T07:35:17.521Z,10.9
2019-04-03T07:35:47.953Z,10.9
2019-04-03T07:36:18.539Z,11
2019-04-03T07:36:49.200Z,11
2019-04-03T07:37:21.003Z,11
2019-04-03T07:37:52.720Z,11
2019-04-03T07:38:22.970Z,11
2019-04-03T07:38:50.917Z,11
2019-04-03T07:40:11.968Z,11.1
2019-04-03T07:41:10.851Z,11.1
2019-04-03T07:42:10.157Z,11.1
2019-04-03T07:43:09.317Z,11.1
2019-04-03T07:44:08.611Z,11.2
2019-04-03T07:44:39.425Z,11.2
2019-04-03T07:45:09.543Z,11.2
2019-04-03T07:45:39.940Z,11.2
2019-04-03T07:46:10.520Z,11.3
2019-04-03T07:46:41.109Z,11.3
2019-04-03T07:47:11.951Z,11.3
2019-04-03T07:47:41.952Z,11.3
2019-04-03T07:49:04.167Z,11.4
2019-04-03T07:50:03.705Z,11.5
2019-04-03T07:51:02.432Z,11.5
2019-04-03T07:52:01.945Z,11.5
2019-04-03T07:53:00.912Z,11.5
2019-04-03T07:53:59.955Z,11.5
2019-04-03T07:54:30.705Z,11.5
2019-04-03T07:55:01.283Z,11.5
2019-04-03T07:55:31.832Z,11.5
2019-04-03T07:56:02.252Z,11.5
2019-04-03T07:56:32.802Z,11.5
2019-04-03T07:57:02.883Z,11.6
2019-04-03T07:57:33.299Z,11.6
2019-04-03T07:59:55.302Z,11.6
2019-04-03T08:00:54.462Z,11.6
2019-04-03T08:01:53.566Z,11.6
2019-04-03T08:02:52.645Z,11.7
2019-04-03T08:03:53.866Z,11.7
2019-04-03T08:04:25.964Z,11.7
2019-04-03T08:04:53.880Z,11.7
2019-04-03T08:05:22.734Z,11.7
2019-04-03T08:05:57.278Z,11.7
2019-04-03T08:06:24.174Z,11.7
2019-04-03T08:06:54.368Z,11.8
2019-04-03T08:07:25.209Z,11.8
2019-04-03T08:07:55.942Z,11.8
2019-04-03T08:08:26.114Z,11.8
2019-04-03T08:09:46.527Z,11.8
2019-04-03T08:10:46.162Z,11.9
2019-04-03T08:11:44.939Z,11.9
2019-04-03T08:12:44.381Z,12
2019-04-03T08:13:43.494Z,12
2019-04-03T08:14:42.419Z,12
2019-04-03T08:15:14.471Z,12
2019-04-03T08:15:45.752Z,12.1
2019-04-03T08:16:16.911Z,12.1
2019-04-03T08:16:45.852Z,12.1
2019-04-03T08:17:14.789Z,12.1
2019-04-03T08:17:44.939Z,12.2
2019-04-03T08:18:15.523Z,12.2
2019-04-03T08:18:46.439Z,12.2
2019-04-03T08:19:16.621Z,12.2
2019-04-03T08:20:37.680Z,12.2
2019-04-03T08:21:36.924Z,12.2
2019-04-03T08:22:36.342Z,12.3
2019-04-03T08:23:38.184Z,12.3
2019-04-03T08:24:34.581Z,12.3
2019-04-03T08:26:32.506Z,12.3
2019-04-03T08:27:03.192Z,12.3
2019-04-03T08:27:34.143Z,12.4
2019-04-03T08:28:04.386Z,12.4
2019-04-03T08:28:34.871Z,12.4
2019-04-03T08:29:05.276Z,12.4
2019-04-03T08:30:29.870Z,12.4
2019-04-03T08:31:28.999Z,12.5
2019-04-03T08:32:27.999Z,12.5
2019-04-03T08:35:25.995Z,12.6
2019-04-03T08:36:27.382Z,12.7
2019-04-03T08:36:55.545Z,12.7
2019-04-03T08:37:33.235Z,12.7
2019-04-03T08:37:56.233Z,12.7
2019-04-03T08:38:27.064Z,12.7
2019-04-03T08:38:57.391Z,12.7
2019-04-03T08:40:21.876Z,12.8
2019-04-03T08:41:24.890Z,12.9
2019-04-03T08:42:19.561Z,12.9
2019-04-03T08:43:18.713Z,13
2019-04-03T08:44:18.684Z,13
2019-04-03T08:45:17.063Z,13.1
2019-04-03T08:46:16.474Z,13.1
2019-04-03T08:47:16.102Z,13.1
2019-04-03T08:47:47.317Z,13.1
2019-04-03T08:48:18.913Z,13.1
2019-04-03T08:48:47.001Z,13.1
2019-04-03T08:50:13.206Z,13.2
2019-04-03T08:51:12.578Z,13.2
2019-04-03T08:52:15.321Z,13.3
2019-04-03T08:53:11.256Z,13.3
2019-04-03T08:54:11.670Z,13.3
2019-04-03T08:55:12.626Z,13.4
2019-04-03T08:56:08.315Z,13.4
2019-04-03T08:57:07.533Z,13.4
2019-04-03T08:58:06.723Z,13.4
2019-04-03T08:58:37.099Z,13.4
2019-04-03T09:00:05.233Z,13.5
2019-04-03T09:01:05.777Z,13.6
2019-04-03T09:02:03.581Z,13.6
2019-04-03T09:03:04.918Z,13.6
2019-04-03T09:04:02.077Z,13.7
2019-04-03T09:05:01.065Z,13.7
2019-04-03T09:06:00.463Z,13.7
2019-04-03T09:06:59.510Z,13.8
2019-04-03T09:07:59.175Z,13.8
2019-04-03T09:08:59.532Z,13.9
2019-04-03T09:09:30.817Z,13.9
2019-04-03T09:10:02.111Z,13.9
2019-04-03T09:10:37.205Z,13.9
2019-04-03T09:10:59.220Z,13.9
2019-04-03T09:11:55.788Z,13.9
2019-04-03T09:12:54.872Z,13.9
2019-04-03T09:13:56.554Z,13.9
2019-04-03T09:14:26.470Z,13.9
2019-04-03T09:14:58.045Z,13.9
2019-04-03T09:15:29.164Z,13.9
2019-04-03T09:16:00.414Z,13.9
2019-04-03T09:16:51.689Z,14
2019-04-03T09:17:50.865Z,14
2019-04-03T09:18:50.374Z,14
2019-04-03T09:19:49.241Z,14.1
2019-04-03T09:20:48.370Z,14.1
2019-04-03T09:21:51.993Z,14.1
2019-04-03T09:22:46.752Z,14.1
2019-04-03T09:23:45.982Z,14.1
2019-04-03T09:24:45.510Z,14.2
2019-04-03T09:25:16.034Z,14.2
2019-04-03T09:25:46.516Z,14.2
2019-04-03T09:26:43.598Z,14.2
2019-04-03T09:27:43.434Z,14.2
2019-04-03T09:28:43.190Z,14.2
2019-04-03T09:29:41.269Z,14.2
2019-04-03T09:30:40.545Z,14.3
2019-04-03T09:31:39.951Z,14.3
2019-04-03T09:32:39.208Z,14.4
2019-04-03T09:34:37.705Z,14.4
2019-04-03T09:35:08.415Z,14.4
2019-04-03T09:36:36.324Z,14.4
2019-04-03T09:37:38.821Z,14.4
2019-04-03T09:38:37.487Z,14.4
2019-04-03T09:39:34.077Z,14.5
2019-04-03T09:40:33.184Z,14.5
2019-04-03T09:41:32.195Z,14.6
2019-04-03T09:42:31.215Z,14.7
2019-04-03T09:43:30.587Z,14.7
2019-04-03T09:44:30.043Z,14.8
2019-04-03T09:45:00.094Z,14.8
2019-04-03T09:45:30.673Z,14.9
2019-04-03T09:46:01.539Z,14.9
2019-04-03T09:47:27.726Z,15
2019-04-03T09:48:26.904Z,15
2019-04-03T09:49:25.933Z,15.1
2019-04-03T09:50:25.092Z,15.2
2019-04-03T09:51:24.267Z,15.2
2019-04-03T09:52:44.877Z,15.2
2019-04-03T09:52:56.309Z,15.2
2019-04-03T09:53:27.415Z,15.2
2019-04-03T09:54:22.307Z,15.2
2019-04-03T09:54:52.277Z,15.2
2019-04-03T09:55:22.689Z,15.2
2019-04-03T09:55:52.944Z,15.2
2019-04-03T09:56:23.356Z,15.3
2019-04-03T09:57:05.986Z,15.3
2019-04-03T09:57:23.842Z,15.3
2019-04-03T09:57:54.837Z,15.3
2019-04-03T09:59:18.728Z,15.4
2019-04-03T10:00:17.702Z,15.4
2019-04-03T10:01:19.720Z,15.4
2019-04-03T10:02:20.857Z,15.5
2019-04-03T10:03:15.382Z,15.5
2019-04-03T10:04:14.655Z,15.6
2019-04-03T10:04:44.764Z,15.6
2019-04-03T10:05:15.369Z,15.6
2019-04-03T10:05:45.652Z,15.6
2019-04-03T10:06:16.224Z,15.7
2019-04-03T10:06:46.566Z,15.7
2019-04-03T10:07:17.378Z,15.7
2019-04-03T10:07:47.584Z,15.7
2019-04-03T10:08:18.004Z,15.7
2019-04-03T10:08:48.209Z,15.7
2019-04-03T10:10:10.342Z,15.8
2019-04-03T10:11:09.160Z,15.9
2019-04-03T10:12:08.532Z,15.9
2019-04-03T10:13:07.948Z,15.9
2019-04-03T10:14:07.278Z,15.8
2019-04-03T10:15:06.287Z,15.7
2019-04-03T10:15:36.477Z,15.7
2019-04-03T10:16:07.095Z,15.7
2019-04-03T10:16:37.501Z,15.7
2019-04-03T10:17:08.655Z,15.7
2019-04-03T10:17:39.970Z,15.7
2019-04-03T10:18:10.366Z,15.7
2019-04-03T10:18:43.005Z,15.7
2019-04-03T10:19:14.569Z,15.8
2019-04-03T10:19:39.794Z,15.8
2019-04-03T10:21:01.488Z,15.8
2019-04-03T10:22:01.295Z,15.9
2019-04-03T10:23:00.233Z,15.9
2019-04-03T10:24:00.976Z,15.9
2019-04-03T10:25:06.257Z,15.9
2019-04-03T10:25:29.452Z,15.9
2019-04-03T10:25:59.672Z,15.9
2019-04-03T10:26:32.199Z,15.9
2019-04-03T10:27:00.549Z,15.9
2019-04-03T10:27:30.702Z,15.9
2019-04-03T10:28:01.300Z,15.9
2019-04-03T10:28:31.990Z,15.9
2019-04-03T10:29:02.003Z,15.9
2019-04-03T10:29:32.643Z,15.9
2019-04-03T10:30:55.006Z,15.9
2019-04-03T10:31:56.535Z,16
2019-04-03T10:32:52.674Z,16
2019-04-03T10:33:52.122Z,15.8
2019-04-03T10:34:51.413Z,15.8
2019-04-03T10:35:50.596Z,15.8
2019-04-03T10:36:21.359Z,15.8
2019-04-03T10:36:51.930Z,15.8
2019-04-03T10:37:22.231Z,15.8
2019-04-03T10:37:52.457Z,15.8
2019-04-03T10:38:22.951Z,15.8
2019-04-03T10:38:53.147Z,15.8
2019-04-03T10:39:23.767Z,15.8
2019-04-03T10:39:54.462Z,15.8
2019-04-03T10:40:25.809Z,15.8
2019-04-03T10:41:46.412Z,15.9
2019-04-03T10:42:45.426Z,15.9
2019-04-03T10:43:44.763Z,15.9
2019-04-03T10:44:43.801Z,15.9
2019-04-03T10:45:42.992Z,15.9
2019-04-03T10:46:42.467Z,16
2019-04-03T10:47:13.032Z,16
2019-04-03T10:47:45.145Z,16
2019-04-03T10:48:13.403Z,16
2019-04-03T10:48:43.672Z,16.1
2019-04-03T10:49:14.245Z,16.1
2019-04-03T10:49:44.416Z,16.1
2019-04-03T10:50:15.301Z,16.1
2019-04-03T10:51:42.624Z,16.2
2019-04-03T10:52:38.401Z,16.3
2019-04-03T10:53:37.237Z,16.3
2019-04-03T10:54:39.295Z,16.4
2019-04-03T10:55:36.232Z,16.4
2019-04-03T10:56:35.068Z,16.5
2019-04-03T10:57:36.393Z,16.5
2019-04-03T10:58:09.407Z,16.5
2019-04-03T10:58:43.464Z,16.5
2019-04-03T10:59:17.624Z,16.5
2019-04-03T10:59:37.183Z,16.6
2019-04-03T11:00:07.153Z,16.6
2019-04-03T11:01:31.748Z,16.7
2019-04-03T11:02:30.808Z,16.7
2019-04-03T11:03:30.086Z,16.8